Time;durP1;ratioP1;P1;durP2;ratioP2;P2;SDS_P1;SDS_P2;PMS_P1;PMS_P2;Temp;Humidity;BMP_temperature;BMP_pressure;BME280_temperature;BME280_humidity;BME280_pressure;Samples;Min_cycle;Max_cycle;Signal;HPM_P1;HPM_P2
2022/11/24 00:00:51;;;;;;;9.35;1.80;;;8.40;99.90;;;;;;4864027;29;20045;-63
2022/11/24 00:03:18;;;;;;;9.95;2.58;;;8.40;99.90;;;;;;4864085;29;20076;-63
2022/11/24 00:05:45;;;;;;;8.95;2.05;;;8.40;99.90;;;;;;4864283;29;20050;-63
2022/11/24 00:08:11;;;;;;;11.13;2.10;;;8.40;99.90;;;;;;4848809;29;20434;-62
2022/11/24 00:10:38;;;;;;;8.15;1.30;;;8.40;99.90;;;;;;4846594;29;20103;-63
2022/11/24 00:13:05;;;;;;;8.40;1.77;;;8.40;99.90;;;;;;4846589;29;20098;-64
2022/11/24 00:15:32;;;;;;;6.32;1.40;;;8.40;99.90;;;;;;4846365;29;20054;-63
2022/11/24 00:17:58;;;;;;;10.18;1.50;;;8.40;99.90;;;;;;4846021;29;20102;-63
2022/11/24 00:20:26;;;;;;;7.38;1.70;;;8.40;99.90;;;;;;4860178;29;20045;-63
2022/11/24 00:22:52;;;;;;;11.27;1.92;;;8.40;99.90;;;;;;4846510;29;20075;-64
2022/11/24 00:25:19;;;;;;;6.35;1.55;;;8.40;99.90;;;;;;4860161;29;20049;-63
2022/11/24 00:27:46;;;;;;;17.17;2.00;;;8.40;99.90;;;;;;4857534;29;20524;-63
2022/11/24 00:30:13;;;;;;;14.02;2.30;;;8.40;99.90;;;;;;4853086;29;20052;-63
2022/11/24 00:32:39;;;;;;;14.27;1.95;;;8.40;99.90;;;;;;4845964;29;20145;-62
2022/11/24 00:35:07;;;;;;;11.30;1.83;;;8.40;99.90;;;;;;4846103;29;20050;-63
2022/11/24 00:37:34;;;;;;;15.18;2.65;;;8.40;99.90;;;;;;4845072;29;20052;-63
2022/11/24 00:40:01;;;;;;;13.95;2.55;;;8.30;99.90;;;;;;4846111;29;20099;-63
2022/11/24 00:42:28;;;;;;;9.68;1.95;;;8.30;99.90;;;;;;4862245;29;20569;-63
2022/11/24 00:44:55;;;;;;;9.98;2.20;;;8.30;99.90;;;;;;4862698;29;20056;-63
2022/11/24 00:47:21;;;;;;;12.90;2.20;;;8.30;99.90;;;;;;4864339;29;20482;-64
2022/11/24 00:49:48;;;;;;;13.02;2.00;;;8.30;99.90;;;;;;4864097;29;20052;-62
2022/11/24 00:52:15;;;;;;;11.13;2.53;;;8.30;99.90;;;;;;4846821;29;20481;-63
2022/11/24 00:54:42;;;;;;;11.75;2.47;;;8.30;99.90;;;;;;4863721;29;20052;-63
2022/11/24 00:57:08;;;;;;;10.25;2.28;;;8.30;99.90;;;;;;4863382;29;20077;-64
2022/11/24 00:59:35;;;;;;;10.43;2.63;;;8.30;99.90;;;;;;4845747;29;20042;-63
2022/11/24 01:02:02;;;;;;;11.32;2.42;;;8.30;99.90;;;;;;4845588;29;20073;-64
2022/11/24 01:04:29;;;;;;;14.07;1.90;;;8.30;99.90;;;;;;4845473;29;20050;-64
2022/11/24 01:06:55;;;;;;;11.77;2.10;;;8.40;99.90;;;;;;4858979;29;20073;-63
2022/11/24 01:09:22;;;;;;;14.15;2.58;;;8.40;99.90;;;;;;4863361;29;20056;-63
2022/11/24 01:12:01;;;;;;;9.45;2.03;;;8.40;99.90;;;;;;4862397;29;20046;-63
2022/11/24 01:14:28;;;;;;;15.13;2.25;;;8.40;99.90;;;;;;4863374;29;20049;-63
2022/11/24 01:16:55;;;;;;;11.98;2.03;;;8.40;99.90;;;;;;4863675;29;20385;-64
2022/11/24 01:19:22;;;;;;;11.40;2.67;;;8.40;99.90;;;;;;4863348;29;20041;-63
2022/11/24 01:21:48;;;;;;;8.55;2.10;;;8.40;99.90;;;;;;4863321;29;20090;-63
2022/11/24 01:24:15;;;;;;;9.27;2.20;;;8.30;99.90;;;;;;4849643;29;20061;-63
2022/11/24 01:26:42;;;;;;;15.93;3.38;;;8.30;99.90;;;;;;4845088;29;20061;-63
2022/11/24 01:29:09;;;;;;;11.02;2.10;;;8.20;99.90;;;;;;4845217;29;20042;-63
2022/11/24 01:31:35;;;;;;;15.50;2.33;;;8.20;99.90;;;;;;4845227;29;20049;-63
2022/11/24 01:34:02;;;;;;;12.88;2.42;;;8.20;99.90;;;;;;4853588;29;20461;-63
2022/11/24 01:36:29;;;;;;;13.27;2.20;;;8.10;99.90;;;;;;4862845;29;20084;-62
2022/11/24 01:38:56;;;;;;;13.70;2.85;;;8.10;99.90;;;;;;4863405;29;20045;-63
2022/11/24 01:41:23;;;;;;;12.50;2.35;;;8.00;99.90;;;;;;4860940;29;20079;-63
2022/11/24 01:43:49;;;;;;;13.27;2.53;;;8.00;99.90;;;;;;4860356;29;20160;-64
2022/11/24 01:46:17;;;;;;;10.07;2.42;;;8.00;99.90;;;;;;4852558;29;20393;-63
2022/11/24 01:48:44;;;;;;;10.95;2.15;;;8.00;99.90;;;;;;4862015;29;20076;-63
2022/11/24 01:51:10;;;;;;;11.90;1.90;;;7.90;99.90;;;;;;4850844;29;20456;-62
2022/11/24 01:53:37;;;;;;;10.93;1.83;;;7.90;99.90;;;;;;4844835;29;20373;-62
2022/11/24 01:56:04;;;;;;;8.32;1.88;;;7.80;99.90;;;;;;4844254;29;20085;-63
2022/11/24 01:58:31;;;;;;;8.85;1.83;;;7.80;99.90;;;;;;4844622;29;20482;-63
2022/11/24 02:00:57;;;;;;;10.85;2.13;;;7.70;99.90;;;;;;4846641;29;20046;-62
2022/11/24 02:03:24;;;;;;;10.55;1.90;;;7.70;99.90;;;;;;4862795;29;20042;-63
2022/11/24 02:05:51;;;;;;;8.07;2.00;;;7.70;99.90;;;;;;4861461;29;20072;-62
2022/11/24 02:08:17;;;;;;;8.23;1.58;;;7.60;99.90;;;;;;4862364;29;20049;-64
2022/11/24 02:10:44;;;;;;;9.23;1.58;;;7.60;99.90;;;;;;4861077;29;20497;-63
2022/11/24 02:13:11;;;;;;;8.25;2.55;;;7.60;99.90;;;;;;4862580;29;20105;-63
2022/11/24 02:15:38;;;;;;;7.22;1.40;;;7.50;99.90;;;;;;4862713;29;20053;-63
2022/11/24 02:18:04;;;;;;;11.30;1.70;;;7.50;99.90;;;;;;4862586;29;20066;-63
2022/11/24 02:20:32;;;;;;;7.38;1.80;;;7.50;99.90;;;;;;4862178;29;20097;-63
2022/11/24 02:22:59;;;;;;;8.60;1.40;;;7.50;99.90;;;;;;4861487;29;20041;-62
2022/11/24 02:25:26;;;;;;;11.40;1.65;;;7.40;99.90;;;;;;4862544;29;20041;-63
2022/11/24 02:27:53;;;;;;;9.30;1.73;;;7.40;99.90;;;;;;4862052;29;20113;-63
2022/11/24 02:30:19;;;;;;;10.30;1.75;;;7.40;99.90;;;;;;4860846;29;20416;-62
2022/11/24 02:32:46;;;;;;;6.45;1.55;;;7.30;99.90;;;;;;4862001;29;20054;-62
2022/11/24 02:35:13;;;;;;;8.82;1.40;;;7.30;99.90;;;;;;4860688;29;20561;-63
2022/11/24 02:37:40;;;;;;;14.00;1.77;;;7.30;99.90;;;;;;4862077;29;20045;-63
2022/11/24 02:40:07;;;;;;;7.32;1.85;;;7.30;99.90;;;;;;4860851;29;20041;-63
2022/11/24 02:42:33;;;;;;;8.75;2.60;;;7.30;99.90;;;;;;4861850;29;20553;-63
2022/11/24 02:45:00;;;;;;;9.07;1.98;;;7.30;99.90;;;;;;4862344;29;20109;-63
2022/11/24 02:47:27;;;;;;;9.70;1.70;;;7.20;99.90;;;;;;4861893;29;20050;-63
2022/11/24 02:49:54;;;;;;;13.27;2.78;;;7.20;99.90;;;;;;4861813;29;20124;-63
2022/11/24 02:52:20;;;;;;;14.57;1.88;;;7.20;99.90;;;;;;4862039;29;20042;-62
2022/11/24 02:54:47;;;;;;;15.20;2.28;;;7.20;99.90;;;;;;4862036;29;20508;-63
2022/11/24 02:57:14;;;;;;;10.25;2.00;;;7.20;99.90;;;;;;4852837;29;20162;-64
2022/11/24 02:59:40;;;;;;;13.38;2.05;;;7.20;99.90;;;;;;4843315;29;20042;-62
2022/11/24 03:02:09;;;;;;;10.77;2.03;;;7.20;99.90;;;;;;4843766;29;20104;-62
2022/11/24 03:04:35;;;;;;;12.32;2.25;;;7.20;99.90;;;;;;4843157;29;20066;-62
2022/11/24 03:07:02;;;;;;;11.45;2.20;;;7.20;99.90;;;;;;4843516;29;20080;-62
2022/11/24 03:09:29;;;;;;;9.65;2.10;;;7.20;99.90;;;;;;4843246;29;20079;-64
2022/11/24 03:11:56;;;;;;;14.27;1.85;;;7.20;99.90;;;;;;4842082;29;20461;-64
2022/11/24 03:14:22;;;;;;;17.40;2.60;;;7.20;99.90;;;;;;4843480;29;20047;-63
2022/11/24 03:16:49;;;;;;;9.98;2.45;;;7.20;99.90;;;;;;4842295;29;20045;-62
2022/11/24 03:19:16;;;;;;;15.88;2.80;;;7.20;99.90;;;;;;4848936;29;20451;-63
2022/11/24 03:21:43;;;;;;;14.27;2.53;;;7.20;99.90;;;;;;4842762;29;20045;-62
2022/11/24 03:24:09;;;;;;;15.85;2.60;;;7.20;99.90;;;;;;4851946;29;20054;-63
2022/11/24 03:26:36;;;;;;;16.48;2.50;;;7.20;99.90;;;;;;4860625;29;20489;-62
2022/11/24 03:29:03;;;;;;;17.60;2.55;;;7.10;99.90;;;;;;4847301;29;20049;-64
2022/11/24 03:31:29;;;;;;;19.27;2.95;;;7.20;99.90;;;;;;4857954;29;20430;-63
2022/11/24 03:33:56;;;;;;;14.13;2.20;;;7.10;99.90;;;;;;4861295;29;20090;-62
2022/11/24 03:36:23;;;;;;;12.95;2.50;;;7.10;99.90;;;;;;4849332;29;20094;-63
2022/11/24 03:38:50;;;;;;;11.05;2.28;;;7.10;99.90;;;;;;4861726;29;20436;-64
2022/11/24 03:41:16;;;;;;;14.32;3.03;;;7.10;99.90;;;;;;4857479;29;20105;-63
2022/11/24 03:43:43;;;;;;;12.68;2.92;;;7.10;99.90;;;;;;4859497;29;20038;-63
2022/11/24 03:46:10;;;;;;;20.13;2.75;;;7.10;99.90;;;;;;4842801;29;20490;-62
2022/11/24 03:48:37;;;;;;;14.43;2.25;;;7.10;99.90;;;;;;4842970;29;20137;-63
2022/11/24 03:51:03;;;;;;;10.95;2.10;;;7.10;99.90;;;;;;4842629;29;20379;-64
2022/11/24 03:53:30;;;;;;;16.77;2.42;;;7.00;99.90;;;;;;4848356;29;20497;-63
2022/11/24 03:55:57;;;;;;;14.88;2.40;;;7.00;99.90;;;;;;4859167;29;20053;-63
2022/11/24 03:58:24;;;;;;;15.20;2.60;;;7.00;99.90;;;;;;4859580;29;20496;-62
2022/11/24 04:00:51;;;;;;;17.83;2.58;;;7.00;99.90;;;;;;4860460;29;20102;-62
2022/11/24 04:03:18;;;;;;;14.82;3.28;;;7.00;99.90;;;;;;4860055;29;20056;-63
2022/11/24 04:05:44;;;;;;;20.42;3.35;;;7.00;99.90;;;;;;4860061;29;20053;-63
2022/11/24 04:08:11;;;;;;;12.45;2.72;;;7.00;99.90;;;;;;4843842;29;20054;-62
2022/11/24 04:10:38;;;;;;;15.23;2.40;;;7.00;99.90;;;;;;4854147;29;20442;-62
2022/11/24 04:13:05;;;;;;;14.65;2.83;;;6.90;99.90;;;;;;4860805;29;20113;-63
2022/11/24 04:15:31;;;;;;;17.58;2.63;;;6.90;99.90;;;;;;4855134;29;20562;-63
2022/11/24 04:17:58;;;;;;;15.52;3.25;;;6.90;99.90;;;;;;4854237;29;20042;-63
2022/11/24 04:20:25;;;;;;;17.48;2.63;;;6.90;99.90;;;;;;4859570;29;20077;-62
2022/11/24 04:22:52;;;;;;;15.95;3.03;;;6.90;99.90;;;;;;4846727;29;20045;-63
2022/11/24 04:25:19;;;;;;;15.55;3.22;;;6.90;99.90;;;;;;4841040;29;20121;-64
2022/11/24 04:27:45;;;;;;;18.67;3.17;;;6.90;99.90;;;;;;4843886;29;20493;-63
2022/11/24 04:30:12;;;;;;;22.33;3.22;;;6.90;99.90;;;;;;4845946;29;20109;-63
2022/11/24 04:32:39;;;;;;;19.40;3.00;;;6.90;99.90;;;;;;4845169;29;20122;-62
2022/11/24 04:35:05;;;;;;;18.13;3.17;;;6.90;99.90;;;;;;4845994;29;20050;-63
2022/11/24 04:37:32;;;;;;;12.88;2.70;;;6.90;99.90;;;;;;4846079;29;20099;-62
2022/11/24 04:39:59;;;;;;;13.23;2.65;;;6.90;99.90;;;;;;4846308;29;20049;-63
2022/11/24 04:42:26;;;;;;;16.23;3.20;;;6.90;99.90;;;;;;4846107;29;20119;-63
2022/11/24 04:44:52;;;;;;;20.67;3.45;;;6.90;99.90;;;;;;4859516;29;20410;-63
2022/11/24 04:47:19;;;;;;;17.85;3.13;;;6.90;99.90;;;;;;4845654;29;20050;-62
2022/11/24 04:49:46;;;;;;;18.65;3.00;;;6.90;99.90;;;;;;4845962;29;20423;-63
2022/11/24 04:52:13;;;;;;;14.20;2.60;;;6.90;99.90;;;;;;4845360;29;20058;-63
2022/11/24 04:54:39;;;;;;;19.05;3.13;;;6.90;99.90;;;;;;4867762;29;20094;-63
2022/11/24 04:57:06;;;;;;;20.63;3.33;;;6.90;99.90;;;;;;4847981;29;20052;-63
2022/11/24 04:59:33;;;;;;;18.23;3.65;;;6.90;99.90;;;;;;4843986;29;20053;-63
2022/11/24 05:02:00;;;;;;;21.13;3.25;;;6.90;99.90;;;;;;4845165;29;20046;-63
2022/11/24 05:04:26;;;;;;;22.90;3.30;;;6.90;99.90;;;;;;4845539;29;20064;-63
2022/11/24 05:06:53;;;;;;;17.67;3.38;;;6.90;99.90;;;;;;4844220;29;20467;-64
2022/11/24 05:09:20;;;;;;;19.88;3.67;;;6.90;99.90;;;;;;4846966;29;20073;-62
2022/11/24 05:11:47;;;;;;;22.73;2.83;;;6.90;99.90;;;;;;4863669;29;20080;-63
2022/11/24 05:14:14;;;;;;;20.55;3.90;;;6.90;99.90;;;;;;4849597;29;20490;-63
2022/11/24 05:16:40;;;;;;;18.60;4.00;;;6.90;99.90;;;;;;4854639;29;20077;-64
2022/11/24 05:19:07;;;;;;;21.58;3.42;;;6.90;99.90;;;;;;4850484;29;20130;-63
2022/11/24 05:21:34;;;;;;;22.95;3.20;;;6.90;99.90;;;;;;4862082;29;20486;-63
2022/11/24 05:24:01;;;;;;;20.52;3.88;;;6.90;99.90;;;;;;4854980;29;20096;-62
2022/11/24 05:26:27;;;;;;;17.15;3.40;;;6.90;99.90;;;;;;4862328;29;20042;-63
2022/11/24 05:28:54;;;;;;;24.20;3.78;;;6.80;99.90;;;;;;4862864;29;20053;-63
2022/11/24 05:31:21;;;;;;;19.70;3.33;;;6.90;99.90;;;;;;4857670;29;20052;-63
2022/11/24 05:33:48;;;;;;;21.67;3.95;;;6.90;99.90;;;;;;4851311;29;20077;-63
2022/11/24 05:39:00;;;;;;;26.58;4.75;;;6.90;99.90;;;;;;4853343;29;20076;-63
2022/11/24 05:41:27;;;;;;;19.67;3.70;;;6.90;99.90;;;;;;4845108;29;20133;-64
2022/11/24 05:43:53;;;;;;;22.17;3.30;;;6.90;99.90;;;;;;4844457;29;20124;-63
2022/11/24 05:46:20;;;;;;;19.77;3.72;;;6.90;99.90;;;;;;4844698;29;20073;-63
2022/11/24 05:48:47;;;;;;;21.52;3.75;;;6.90;99.90;;;;;;4844469;29;20138;-63
2022/11/24 05:51:13;;;;;;;20.48;3.33;;;6.90;99.90;;;;;;4867848;29;20524;-63
2022/11/24 05:53:40;;;;;;;22.63;4.25;;;6.90;99.90;;;;;;4863422;29;20080;-63
2022/11/24 05:56:07;;;;;;;22.77;4.03;;;6.80;99.90;;;;;;4862948;29;20088;-63
2022/11/24 05:58:34;;;;;;;17.02;4.13;;;6.90;99.90;;;;;;4863026;29;20049;-63
2022/11/24 06:01:01;;;;;;;24.42;3.97;;;6.90;99.90;;;;;;4863275;29;20452;-63
2022/11/24 06:03:27;;;;;;;22.17;4.70;;;6.80;99.90;;;;;;4859821;29;20076;-63
2022/11/24 06:05:54;;;;;;;19.27;4.05;;;6.80;99.90;;;;;;4842854;29;20102;-62
2022/11/24 06:08:21;;;;;;;21.27;3.80;;;6.80;99.90;;;;;;4844506;29;20090;-63
2022/11/24 06:10:53;;;;;;;26.65;4.30;;;6.80;99.90;;;;;;4844207;29;20054;-63
2022/11/24 06:13:20;;;;;;;16.15;3.03;;;6.80;99.90;;;;;;4844038;29;20042;-64
2022/11/24 06:15:47;;;;;;;17.08;3.60;;;6.80;99.90;;;;;;4843825;29;20106;-64
2022/11/24 06:18:13;;;;;;;19.67;5.18;;;6.80;99.90;;;;;;4843958;29;20082;-64
2022/11/24 06:20:40;;;;;;;21.70;3.85;;;6.80;99.90;;;;;;4848775;29;20073;-62
2022/11/24 06:23:12;;;;;;;16.88;2.97;;;6.80;99.90;;;;;;4862261;29;20049;-62
2022/11/24 06:25:38;;;;;;;21.23;3.72;;;6.90;99.90;;;;;;4862532;29;20037;-63
2022/11/24 06:28:05;;;;;;;24.75;3.95;;;6.90;99.90;;;;;;4845667;29;20049;-63
2022/11/24 06:30:32;;;;;;;34.28;4.82;;;6.90;99.90;;;;;;4862302;29;20478;-63
2022/11/24 06:32:59;;;;;;;29.55;3.85;;;6.90;99.90;;;;;;4862168;29;20159;-63
2022/11/24 06:35:25;;;;;;;22.77;4.07;;;7.00;99.90;;;;;;4859967;29;20070;-63
2022/11/24 06:37:52;;;;;;;28.20;4.75;;;6.90;99.90;;;;;;4845045;29;20124;-64
2022/11/24 06:40:19;;;;;;;30.17;4.32;;;7.00;99.90;;;;;;4858213;29;20046;-63
2022/11/24 06:42:45;;;;;;;23.70;4.45;;;7.00;99.90;;;;;;4843789;29;20084;-63
2022/11/24 06:45:12;;;;;;;21.25;3.97;;;7.00;99.90;;;;;;4843924;29;20050;-64
2022/11/24 06:47:39;;;;;;;30.95;4.45;;;7.10;99.90;;;;;;4862343;29;20045;-63
2022/11/24 06:50:06;;;;;;;22.30;3.88;;;7.10;99.90;;;;;;4861745;29;20125;-63
2022/11/24 06:52:32;;;;;;;29.20;4.80;;;7.10;99.90;;;;;;4861708;29;20133;-63
2022/11/24 06:54:59;;;;;;;22.77;3.80;;;7.10;99.90;;;;;;4860675;29;20072;-64
2022/11/24 06:57:26;;;;;;;25.45;4.72;;;7.10;99.90;;;;;;4861722;29;20053;-63
2022/11/24 06:59:52;;;;;;;26.75;4.15;;;7.00;99.90;;;;;;4861845;29;20050;-64
2022/11/24 07:02:19;;;;;;;22.63;3.95;;;7.00;99.90;;;;;;4861475;29;20076;-63
2022/11/24 07:04:46;;;;;;;28.08;4.13;;;7.10;99.90;;;;;;4861543;29;20045;-63
2022/11/24 07:07:12;;;;;;;21.52;4.57;;;7.00;99.90;;;;;;4861736;29;20128;-63
2022/11/24 07:09:39;;;;;;;21.17;3.53;;;7.00;99.90;;;;;;4860378;29;20057;-63
2022/11/24 07:12:06;;;;;;;27.90;4.55;;;7.00;99.90;;;;;;4849229;29;20068;-63
2022/11/24 07:14:33;;;;;;;23.23;3.83;;;7.00;99.90;;;;;;4857591;29;20465;-63
2022/11/24 07:17:01;;;;;;;28.77;4.75;;;7.00;99.90;;;;;;4859757;29;20053;-64
2022/11/24 07:19:28;;;;;;;30.15;4.18;;;7.00;99.90;;;;;;4850303;29;20037;-63
2022/11/24 07:21:54;;;;;;;25.98;4.22;;;6.90;99.90;;;;;;4852709;29;20124;-66
2022/11/24 07:24:21;;;;;;;20.60;4.00;;;7.00;99.90;;;;;;4858585;29;20102;-63
2022/11/24 07:26:48;;;;;;;25.00;4.03;;;7.00;99.90;;;;;;4851061;29;20086;-64
2022/11/24 07:29:15;;;;;;;22.33;4.05;;;7.00;99.90;;;;;;4852932;29;20046;-63
2022/11/24 07:31:42;;;;;;;20.30;3.80;;;7.00;99.90;;;;;;4845199;29;20122;-64
2022/11/24 07:34:08;;;;;;;27.88;5.82;;;7.00;99.90;;;;;;4859319;29;20426;-63
2022/11/24 07:36:35;;;;;;;21.88;4.03;;;7.00;99.90;;;;;;4858863;29;20709;-64
2022/11/24 07:39:02;;;;;;;23.42;3.17;;;7.00;99.90;;;;;;4859977;29;20042;-63
2022/11/24 07:41:29;;;;;;;24.92;3.72;;;7.10;99.90;;;;;;4847672;29;20045;-64
2022/11/24 07:43:56;;;;;;;20.35;3.90;;;7.10;99.90;;;;;;4854469;29;20045;-64
2022/11/24 07:46:22;;;;;;;26.85;4.43;;;7.10;99.90;;;;;;4852558;29;20116;-62
2022/11/24 07:48:49;;;;;;;21.85;4.57;;;7.10;99.90;;;;;;4853485;29;20060;-63
2022/11/24 07:51:16;;;;;;;20.60;3.83;;;7.20;99.90;;;;;;4860753;29;20101;-64
2022/11/24 07:53:43;;;;;;;21.77;3.75;;;7.20;99.90;;;;;;4856043;29;20227;-62
2022/11/24 07:56:09;;;;;;;25.80;4.35;;;7.30;99.90;;;;;;4844994;29;20570;-63
2022/11/24 07:58:36;;;;;;;23.83;5.20;;;7.30;99.90;;;;;;4854062;29;20128;-63
2022/11/24 08:01:03;;;;;;;26.70;4.80;;;7.40;99.90;;;;;;4847510;29;20042;-62
2022/11/24 08:03:30;;;;;;;26.80;6.78;;;7.40;99.90;;;;;;4857185;29;20053;-63
2022/11/24 08:05:56;;;;;;;24.10;5.03;;;7.50;99.90;;;;;;4853116;29;20041;-63
2022/11/24 08:08:43;;;;;;;27.40;5.53;;;7.50;99.90;;;;;;4856121;29;20520;-64
2022/11/24 08:11:10;;;;;;;24.95;5.13;;;7.50;99.90;;;;;;4852581;29;20058;-63
2022/11/24 08:13:36;;;;;;;27.08;4.70;;;7.60;99.90;;;;;;4854194;29;20045;-63
2022/11/24 08:16:03;;;;;;;24.08;4.70;;;7.60;99.90;;;;;;4851006;29;20077;-63
2022/11/24 08:18:30;;;;;;;21.08;4.47;;;7.70;99.90;;;;;;4848832;29;20080;-63
2022/11/24 08:20:56;;;;;;;25.95;5.43;;;7.70;99.90;;;;;;4855555;29;20033;-62
2022/11/24 08:23:23;;;;;;;28.35;4.63;;;7.70;99.90;;;;;;4858972;29;20053;-63
2022/11/24 08:25:50;;;;;;;26.80;4.97;;;7.70;99.90;;;;;;4848721;29;20459;-63
2022/11/24 08:28:22;;;;;;;30.55;5.28;;;7.80;99.90;;;;;;4858248;29;20069;-63
2022/11/24 08:30:49;;;;;;;27.65;5.00;;;7.80;99.90;;;;;;4864247;29;20086;-63
2022/11/24 08:33:15;;;;;;;35.83;6.05;;;7.80;99.90;;;;;;4864355;29;20046;-62
2022/11/24 08:35:42;;;;;;;33.72;6.30;;;7.90;99.90;;;;;;4864113;29;20362;-63
2022/11/24 08:38:09;;;;;;;36.70;7.45;;;7.90;99.90;;;;;;4864268;29;20044;-63
2022/11/24 08:40:36;;;;;;;44.15;10.45;;;7.90;99.90;;;;;;4862941;29;20141;-62
2022/11/24 08:43:03;;;;;;;29.33;5.70;;;8.00;99.90;;;;;;4864236;29;20037;-62
2022/11/24 08:45:29;;;;;;;31.33;5.60;;;8.00;99.90;;;;;;4863810;29;20045;-63
2022/11/24 08:47:57;;;;;;;31.65;5.90;;;8.00;99.90;;;;;;4864188;29;20385;-63
2022/11/24 08:50:24;;;;;;;46.70;8.20;;;8.00;99.90;;;;;;4864250;29;20084;-62
2022/11/24 08:52:50;;;;;;;24.83;5.78;;;8.00;99.90;;;;;;4863880;29;20462;-63
2022/11/24 08:55:17;;;;;;;24.63;5.55;;;8.10;99.90;;;;;;4862830;29;20122;-63
2022/11/24 08:57:44;;;;;;;30.70;6.55;;;8.10;99.90;;;;;;4863824;29;20056;-63
2022/11/24 09:00:11;;;;;;;29.73;6.93;;;8.10;99.90;;;;;;4863606;29;20219;-63
2022/11/24 09:02:38;;;;;;;35.70;6.05;;;8.20;99.90;;;;;;4862626;29;20073;-63
2022/11/24 09:05:05;;;;;;;32.75;6.30;;;8.20;99.90;;;;;;4863430;29;20037;-62
2022/11/24 09:07:51;;;;;;;24.13;5.47;;;8.30;99.90;;;;;;4863853;29;20098;-63
2022/11/24 09:10:18;;;;;;;45.85;6.53;;;8.40;99.90;;;;;;4863720;29;20080;-63
2022/11/24 09:12:45;;;;;;;37.63;5.53;;;8.40;99.90;;;;;;4863919;29;20394;-63
2022/11/24 09:15:12;;;;;;;106.30;12.88;;;8.40;99.90;;;;;;4861136;29;20048;-62
2022/11/24 09:17:39;;;;;;;36.92;6.13;;;8.50;99.90;;;;;;4863282;29;20069;-63
2022/11/24 09:20:06;;;;;;;311.92;33.30;;;8.50;99.90;;;;;;4863410;29;20086;-62
2022/11/24 09:22:32;;;;;;;81.38;10.50;;;8.50;99.90;;;;;;4863504;29;20041;-63
2022/11/24 09:24:59;;;;;;;180.82;22.63;;;8.60;99.90;;;;;;4863030;29;20541;-63
2022/11/24 09:27:26;;;;;;;34.75;7.55;;;8.60;99.90;;;;;;4863437;29;20045;-63
2022/11/24 09:29:52;;;;;;;33.25;6.43;;;8.70;99.90;;;;;;4863335;29;20501;-64
2022/11/24 09:32:19;;;;;;;58.72;7.65;;;8.80;99.90;;;;;;4863727;29;20045;-64
2022/11/24 09:34:46;;;;;;;91.05;10.73;;;8.80;99.90;;;;;;4863093;29;20105;-63
2022/11/24 09:37:13;;;;;;;37.10;5.93;;;8.90;99.90;;;;;;4862995;29;20060;-64
2022/11/24 09:39:39;;;;;;;34.30;5.55;;;9.00;99.90;;;;;;4863221;29;20520;-63
2022/11/24 09:42:06;;;;;;;122.57;14.70;;;9.00;99.90;;;;;;4863627;29;20080;-64
2022/11/24 09:44:33;;;;;;;112.15;13.45;;;9.10;99.90;;;;;;4863529;29;20514;-63
2022/11/24 09:46:59;;;;;;;168.02;19.17;;;9.20;99.90;;;;;;4862877;29;20558;-63
2022/11/24 09:49:26;;;;;;;55.22;9.43;;;9.20;99.90;;;;;;4862074;29;20439;-63
2022/11/24 09:51:53;;;;;;;30.38;6.05;;;9.30;99.90;;;;;;4862934;29;20042;-63
2022/11/24 09:54:20;;;;;;;32.17;5.88;;;9.40;99.90;;;;;;4863271;29;20481;-64
2022/11/24 09:56:46;;;;;;;33.63;6.22;;;9.40;99.90;;;;;;4863231;29;20060;-62
2022/11/24 09:59:13;;;;;;;178.00;20.25;;;9.50;99.90;;;;;;4862717;29;20430;-65
2022/11/24 10:01:40;;;;;;;46.20;8.40;;;9.50;99.90;;;;;;4862731;29;20132;-63
2022/11/24 10:04:07;;;;;;;34.28;5.97;;;9.60;99.90;;;;;;4862726;29;20046;-64
2022/11/24 10:06:33;;;;;;;112.78;13.98;;;9.60;99.90;;;;;;4862633;29;20062;-64
2022/11/24 10:09:00;;;;;;;117.30;13.85;;;9.70;99.90;;;;;;4862845;29;20478;-64
2022/11/24 10:11:27;;;;;;;64.03;10.15;;;9.70;99.90;;;;;;4863081;29;20080;-63
2022/11/24 10:13:54;;;;;;;36.67;6.68;;;9.80;99.90;;;;;;4862580;29;20050;-63
2022/11/24 10:16:20;;;;;;;156.98;18.48;;;9.90;99.90;;;;;;4861402;29;20549;-63
2022/11/24 10:18:47;;;;;;;45.10;6.82;;;9.90;99.90;;;;;;4862424;29;20041;-64
2022/11/24 10:21:14;;;;;;;89.93;10.70;;;10.00;99.90;;;;;;4862608;29;20109;-63
2022/11/24 10:23:42;;;;;;;47.00;7.97;;;10.10;99.90;;;;;;4861388;29;20045;-63
2022/11/24 10:26:09;;;;;;;35.55;6.22;;;10.20;99.90;;;;;;4860909;29;20046;-65
2022/11/24 10:28:35;;;;;;;35.72;6.28;;;10.20;99.90;;;;;;4861310;29;20533;-63
2022/11/24 10:31:02;;;;;;;33.92;6.10;;;10.20;99.90;;;;;;4860592;29;20065;-63
2022/11/24 10:33:29;;;;;;;37.08;6.63;;;10.20;99.90;;;;;;4862140;29;20430;-64
2022/11/24 10:35:56;;;;;;;51.70;8.20;;;10.30;99.90;;;;;;4861846;29;20077;-63
2022/11/24 10:38:24;;;;;;;61.10;8.57;;;10.30;99.90;;;;;;4862236;29;20060;-63
2022/11/24 10:40:50;;;;;;;37.75;6.55;;;10.20;99.90;;;;;;4862188;29;20057;-63
2022/11/24 10:43:24;;;;;;;36.50;6.35;;;10.20;99.90;;;;;;4862490;29;20113;-62
2022/11/24 10:45:51;;;;;;;44.35;6.90;;;10.30;99.90;;;;;;4861925;29;20485;-64
2022/11/24 10:48:18;;;;;;;30.60;6.43;;;10.30;99.90;;;;;;4860845;29;20046;-63
2022/11/24 10:50:45;;;;;;;35.65;7.28;;;10.40;99.90;;;;;;4862285;29;20046;-63
2022/11/24 10:53:11;;;;;;;45.28;8.25;;;10.40;99.90;;;;;;4861897;29;20049;-63
2022/11/24 10:55:38;;;;;;;51.83;8.85;;;10.50;99.90;;;;;;4862024;29;20412;-63
2022/11/24 10:58:05;;;;;;;68.40;10.20;;;10.50;99.90;;;;;;4861994;29;20128;-64
2022/11/24 11:00:33;;;;;;;50.35;8.10;;;10.50;99.90;;;;;;4860792;29;20053;-64
2022/11/24 11:02:59;;;;;;;79.15;11.65;;;10.50;99.90;;;;;;4862162;29;20037;-63
2022/11/24 11:05:26;;;;;;;227.32;24.35;;;10.60;99.90;;;;;;4861541;29;20165;-64
2022/11/24 11:07:53;;;;;;;50.08;9.63;;;10.60;99.90;;;;;;4862115;29;20045;-63
2022/11/24 11:10:20;;;;;;;46.97;8.10;;;10.60;99.90;;;;;;4861708;29;20076;-63
2022/11/24 11:12:46;;;;;;;45.53;7.15;;;10.70;99.90;;;;;;4861733;29;20073;-63
2022/11/24 11:15:13;;;;;;;39.83;7.47;;;10.70;99.90;;;;;;4860239;29;20057;-64
2022/11/24 11:17:40;;;;;;;44.22;8.30;;;10.80;99.90;;;;;;4860380;29;20055;-64
2022/11/24 11:20:07;;;;;;;44.67;8.30;;;10.80;99.90;;;;;;4861336;29;20105;-64
2022/11/24 11:22:34;;;;;;;35.35;7.13;;;10.90;99.90;;;;;;4861310;29;20116;-64
2022/11/24 11:25:01;;;;;;;39.45;8.05;;;10.90;99.90;;;;;;4861217;29;20053;-63
2022/11/24 11:27:27;;;;;;;37.58;7.32;;;11.00;99.90;;;;;;4861236;29;20041;-63
2022/11/24 11:29:54;;;;;;;36.78;7.07;;;11.00;99.90;;;;;;4861213;29;20050;-64
2022/11/24 11:32:41;;;;;;;38.90;7.57;;;11.10;99.90;;;;;;4861189;29;20069;-63
2022/11/24 11:35:27;;;;;;;32.25;6.65;;;11.20;99.90;;;;;;4861257;29;20125;-63
2022/11/24 11:37:54;;;;;;;28.92;5.80;;;11.20;99.90;;;;;;4860890;29;20057;-63
2022/11/24 11:40:21;;;;;;;44.78;6.78;;;11.30;99.90;;;;;;4861602;29;20098;-64
2022/11/24 11:42:48;;;;;;;33.03;6.93;;;11.30;99.90;;;;;;4861643;29;20045;-63
2022/11/24 11:45:30;;;;;;;33.30;5.70;;;11.30;99.90;;;;;;4861477;29;20120;-63
2022/11/24 11:47:57;;;;;;;21.88;5.38;;;11.50;99.90;;;;;;4861465;29;20481;-63
2022/11/24 11:50:24;;;;;;;125.35;17.23;;;11.50;99.90;;;;;;4861122;29;20073;-64
2022/11/24 11:52:51;;;;;;;39.72;6.47;;;11.60;99.90;;;;;;4860946;29;20080;-63
2022/11/24 11:55:18;;;;;;;32.28;5.63;;;11.60;99.90;;;;;;4861001;29;20041;-64
2022/11/24 11:57:44;;;;;;;89.70;10.93;;;11.60;99.90;;;;;;4861521;29;20120;-63
2022/11/24 12:00:11;;;;;;;41.50;7.45;;;11.70;99.90;;;;;;4861710;29;20049;-63
2022/11/24 12:02:38;;;;;;;34.47;6.68;;;11.70;99.90;;;;;;4861478;29;20041;-63
2022/11/24 12:05:05;;;;;;;87.95;11.25;;;11.80;99.90;;;;;;4861217;29;20102;-63
2022/11/24 12:07:32;;;;;;;30.88;5.10;;;11.80;99.90;;;;;;4859740;29;20086;-64
2022/11/24 12:10:00;;;;;;;41.75;6.70;;;11.80;99.90;;;;;;4861222;29;20109;-63
2022/11/24 12:12:27;;;;;;;111.60;13.75;;;11.80;99.90;;;;;;4861383;29;20098;-64
2022/11/24 12:14:53;;;;;;;51.78;6.85;;;11.90;99.90;;;;;;4861087;29;20061;-64
2022/11/24 12:17:20;;;;;;;57.45;6.82;;;11.90;99.90;;;;;;4861341;29;20128;-63
2022/11/24 12:19:47;;;;;;;37.33;6.07;;;12.00;99.90;;;;;;4861145;29;20437;-64
2022/11/24 12:22:13;;;;;;;30.45;5.70;;;12.00;99.90;;;;;;4861067;29;20098;-64
2022/11/24 12:24:40;;;;;;;30.65;5.55;;;12.00;99.90;;;;;;4859572;29;20053;-63
2022/11/24 12:27:07;;;;;;;29.23;6.32;;;11.90;99.90;;;;;;4861112;29;20049;-65
2022/11/24 12:29:34;;;;;;;53.47;7.88;;;12.00;99.90;;;;;;4861018;29;20075;-64
2022/11/24 12:32:01;;;;;;;34.47;6.13;;;12.00;99.90;;;;;;4860660;29;20038;-65
2022/11/24 12:34:28;;;;;;;39.00;5.32;;;12.00;99.90;;;;;;4860731;29;20129;-63
2022/11/24 12:36:54;;;;;;;87.93;9.50;;;12.00;99.90;;;;;;4860772;29;20101;-64
2022/11/24 12:39:21;;;;;;;26.88;4.90;;;12.10;99.90;;;;;;4860711;29;20042;-63
2022/11/24 12:41:48;;;;;;;29.33;5.72;;;12.10;99.90;;;;;;4860741;29;20046;-63
2022/11/24 12:44:14;;;;;;;23.10;5.05;;;12.10;99.90;;;;;;4860955;29;20042;-63
2022/11/24 12:46:41;;;;;;;125.10;14.80;;;12.10;99.90;;;;;;4860673;29;20466;-64